Pagrindinis puslapis
METAR-TAF:

METAR-TAF

Oro uostai :

Riberalta, Bolivija

platuma: 11-00S, ilguma: 066-07W, Aukštis: 141 m

Dabartinis oras

Ataskaita buvo paskelbta 1 valandą ir 7 minutes, ne 20:00 UTC
Vėjas 3 kt iš Pietryčių
Temperatūra 29°C
Drėgmė 48%
Slėgis 1016 hPa
Matomumas 10 km arba daugiau

METAR: SLRI 302000Z 14003KT 9999 NSC 29/17 Q1016

Laikas: 17:07 (21:07 UTC)


TAF: trūkstamas

Orai ataskaitas ir orų prognozės (METAR, TAF).

turimą stotys yra geltonos ir raudonos taškus žemėlapyje.

Perkelti pele per norėdami pamatyti stoties vardą.

Tada spustelėkite, norėdami matyti oro stebėjimo ir prognozės.

Norėdami pakeisti žemėlapį: spustelėkite ant žalios mygtukų su juodo kryžiaus žemyn,; žalią mygtuką su brūkšneliu, jei norite nutolinti; arba žalių rodyklių gretimoms žemėlapius.


METAR-TAF: